createdAt,value
2023-12-09T00:01:21.576Z,25.13
2023-12-09T00:03:49.909Z,28.97
2023-12-09T00:06:18.200Z,26.30
2023-12-09T00:08:46.490Z,28.43
2023-12-09T00:11:14.647Z,30.83
2023-12-09T00:13:44.104Z,30.07
2023-12-09T00:16:12.334Z,23.97
2023-12-09T00:18:40.573Z,25.53
2023-12-09T00:21:09.268Z,24.57
2023-12-09T00:23:47.085Z,28.77
2023-12-09T00:26:16.516Z,28.33
2023-12-09T00:28:45.988Z,29.00
2023-12-09T00:31:14.200Z,25.17
2023-12-09T00:33:42.843Z,27.27
2023-12-09T00:36:11.455Z,25.93
2023-12-09T00:38:41.169Z,26.63
2023-12-09T00:41:09.314Z,30.67
2023-12-09T00:43:37.367Z,27.93
2023-12-09T00:46:07.344Z,30.87
2023-12-09T00:48:35.720Z,27.10
2023-12-09T00:51:04.088Z,27.57
2023-12-09T00:53:32.180Z,25.70
2023-12-09T00:56:00.230Z,25.33
2023-12-09T00:58:28.513Z,25.60
2023-12-09T01:00:56.615Z,25.87
2023-12-09T01:03:26.164Z,26.13
2023-12-09T01:05:54.303Z,27.87
2023-12-09T01:08:22.389Z,28.90
2023-12-09T01:10:50.462Z,28.80
2023-12-09T01:13:18.545Z,25.43
2023-12-09T01:15:46.740Z,23.60
2023-12-09T01:18:15.058Z,25.47
2023-12-09T01:20:44.670Z,26.03
2023-12-09T01:23:14.312Z,25.67
2023-12-09T01:25:42.383Z,27.17
2023-12-09T01:28:10.437Z,25.97
2023-12-09T01:30:38.704Z,30.33
2023-12-09T01:33:07.054Z,23.37
2023-12-09T01:35:35.234Z,23.80
2023-12-09T01:38:04.790Z,19.83
2023-12-09T01:40:32.933Z,23.33
2023-12-09T01:43:01.008Z,23.13
2023-12-09T01:45:29.212Z,22.70
2023-12-09T01:47:57.379Z,26.17
2023-12-09T01:50:25.796Z,23.10
2023-12-09T01:52:54.295Z,24.47
2023-12-09T01:55:24.183Z,25.43
2023-12-09T01:57:53.587Z,22.47
2023-12-09T02:00:22.860Z,21.90
2023-12-09T02:02:51.260Z,24.10
2023-12-09T02:05:19.491Z,19.53
2023-12-09T02:07:47.556Z,20.27
2023-12-09T02:10:15.681Z,20.73
2023-12-09T02:12:50.235Z,21.47
2023-12-09T02:15:24.314Z,21.27
2023-12-09T02:17:56.547Z,23.13
2023-12-09T02:20:25.169Z,22.93
2023-12-09T02:23:06.307Z,20.93
2023-12-09T02:25:34.611Z,23.23
2023-12-09T02:28:06.540Z,19.37
2023-12-09T02:30:45.833Z,19.40
2023-12-09T02:33:16.854Z,20.33
2023-12-09T02:35:47.739Z,18.87
2023-12-09T02:38:18.460Z,20.80
2023-12-09T02:40:47.463Z,18.53
2023-12-09T02:43:16.388Z,23.30
2023-12-09T02:45:46.805Z,17.93
2023-12-09T02:48:15.142Z,18.47
2023-12-09T02:50:43.386Z,19.57
2023-12-09T02:53:11.455Z,19.03
2023-12-09T02:55:40.900Z,20.93
2023-12-09T02:58:08.962Z,19.13
2023-12-09T03:00:37.119Z,16.53
2023-12-09T03:03:05.529Z,17.30
2023-12-09T03:05:33.729Z,17.43
2023-12-09T03:08:01.221Z,19.73
2023-12-09T03:10:29.266Z,18.10
2023-12-09T03:12:58.732Z,19.87
2023-12-09T03:15:26.852Z,19.00
2023-12-09T03:17:55.254Z,17.50
2023-12-09T03:20:23.434Z,15.60
2023-12-09T03:22:51.530Z,19.17
2023-12-09T03:25:19.602Z,16.00
2023-12-09T03:27:47.729Z,17.07
2023-12-09T03:30:17.375Z,16.10
2023-12-09T03:32:45.482Z,18.50
2023-12-09T03:35:13.666Z,14.03
2023-12-09T03:37:41.740Z,14.10
2023-12-09T03:40:12.767Z,17.47
2023-12-09T03:42:40.919Z,14.93
2023-12-09T03:45:09.753Z,14.97
2023-12-09T03:47:39.292Z,14.07
2023-12-09T03:50:08.316Z,16.30
2023-12-09T03:52:36.373Z,15.47
2023-12-09T03:55:05.213Z,16.53
2023-12-09T03:57:33.520Z,15.33
2023-12-09T04:00:01.692Z,14.53
2023-12-09T04:02:30.079Z,14.13
2023-12-09T04:05:00.269Z,13.57
2023-12-09T04:07:28.635Z,12.57
2023-12-09T04:09:56.699Z,11.73
2023-12-09T04:12:25.067Z,11.60
2023-12-09T04:14:53.323Z,10.10
2023-12-09T04:17:22.983Z,11.57
2023-12-09T04:19:53.071Z,11.70
2023-12-09T04:22:22.691Z,11.27
2023-12-09T04:24:50.767Z,12.33
2023-12-09T04:27:19.181Z,12.30
2023-12-09T04:29:47.257Z,11.27
2023-12-09T04:32:15.342Z,10.73
2023-12-09T04:34:44.419Z,12.40
2023-12-09T04:37:12.473Z,16.23
2023-12-09T04:39:41.992Z,10.93
2023-12-09T04:42:10.188Z,11.40
2023-12-09T04:44:38.273Z,11.17
2023-12-09T04:47:08.187Z,10.80
2023-12-09T04:49:36.560Z,11.23
2023-12-09T04:52:05.392Z,10.93
2023-12-09T04:54:33.547Z,11.20
2023-12-09T04:57:03.327Z,10.43
2023-12-09T04:59:31.434Z,12.40
2023-12-09T05:01:59.533Z,10.00
2023-12-09T05:04:27.723Z,10.80
2023-12-09T05:06:55.833Z,11.50
2023-12-09T05:09:24.710Z,10.33
2023-12-09T05:11:52.883Z,12.20
2023-12-09T05:14:22.851Z,11.23
2023-12-09T05:16:50.907Z,10.67
2023-12-09T05:19:19.304Z,13.87
2023-12-09T05:21:48.041Z,10.33
2023-12-09T05:24:16.262Z,10.90
2023-12-09T05:26:44.392Z,12.77
2023-12-09T05:29:12.491Z,11.40
2023-12-09T05:31:42.831Z,12.53
2023-12-09T05:34:11.127Z,14.17
2023-12-09T05:36:40.231Z,11.00
2023-12-09T05:39:08.581Z,11.20
2023-12-09T05:41:36.636Z,11.70
2023-12-09T05:44:04.760Z,9.60
2023-12-09T05:46:32.875Z,10.57
2023-12-09T05:49:02.697Z,12.17
2023-12-09T05:51:30.914Z,12.17
2023-12-09T05:53:59.060Z,11.50
2023-12-09T05:56:27.234Z,10.40
2023-12-09T05:58:55.500Z,12.17
2023-12-09T06:01:23.656Z,9.83
2023-12-09T06:03:51.757Z,9.67
2023-12-09T06:06:21.320Z,10.27
2023-12-09T06:08:50.425Z,9.70
2023-12-09T06:11:18.580Z,11.53
2023-12-09T06:13:47.348Z,10.00
2023-12-09T06:16:19.602Z,12.73
2023-12-09T06:18:48.336Z,11.60
2023-12-09T06:21:23.113Z,10.50
2023-12-09T06:23:51.920Z,13.63
2023-12-09T06:26:20.502Z,13.33
2023-12-09T06:28:48.652Z,11.13
2023-12-09T06:31:16.734Z,12.90
2023-12-09T06:33:45.015Z,11.70
2023-12-09T06:36:13.280Z,11.20
2023-12-09T06:38:43.069Z,12.87
2023-12-09T06:41:11.216Z,13.33
2023-12-09T06:43:40.833Z,12.17
2023-12-09T06:46:08.997Z,13.97
2023-12-09T06:48:39.569Z,13.90
2023-12-09T06:51:09.690Z,12.10
2023-12-09T06:53:40.787Z,14.30
2023-12-09T06:56:20.062Z,14.70
2023-12-09T06:58:48.164Z,15.07
2023-12-09T07:01:23.109Z,15.67
2023-12-09T07:03:51.808Z,15.50
2023-12-09T07:06:25.965Z,16.13
2023-12-09T07:08:55.105Z,15.67
2023-12-09T07:11:25.254Z,17.73
2023-12-09T07:13:53.458Z,22.20
2023-12-09T07:16:21.653Z,18.93
2023-12-09T07:18:52.450Z,16.37
2023-12-09T07:21:21.056Z,19.83
2023-12-09T07:23:49.269Z,18.17
2023-12-09T07:26:17.559Z,22.43
2023-12-09T07:28:47.250Z,16.10
2023-12-09T07:31:15.473Z,16.53
2023-12-09T07:33:43.752Z,17.30
2023-12-09T07:36:12.146Z,19.97
2023-12-09T07:38:40.325Z,18.97
2023-12-09T07:41:08.499Z,24.17
2023-12-09T07:43:39.476Z,17.77
2023-12-09T07:46:10.494Z,19.23
2023-12-09T07:48:38.765Z,17.70
2023-12-09T07:51:07.400Z,17.03
2023-12-09T07:53:35.652Z,18.50
2023-12-09T07:56:03.731Z,18.60
2023-12-09T07:58:31.780Z,19.93
2023-12-09T08:01:01.572Z,19.57
2023-12-09T08:03:33.920Z,15.87
2023-12-09T08:06:03.909Z,18.23
2023-12-09T08:08:32.112Z,22.40
2023-12-09T08:11:02.462Z,18.43
2023-12-09T08:13:30.549Z,16.77
2023-12-09T08:15:58.569Z,19.10
2023-12-09T08:18:27.375Z,17.13
2023-12-09T08:20:57.686Z,20.67
2023-12-09T08:23:25.820Z,17.47
2023-12-09T08:25:53.979Z,16.00
2023-12-09T08:28:22.076Z,20.87
2023-12-09T08:30:50.136Z,17.20
2023-12-09T08:33:18.317Z,16.97
2023-12-09T08:35:46.527Z,20.17
2023-12-09T08:38:16.242Z,17.70
2023-12-09T08:40:44.367Z,18.40
2023-12-09T08:43:12.468Z,21.07
2023-12-09T08:45:40.608Z,19.23
2023-12-09T08:48:09.516Z,22.23
2023-12-09T08:50:37.741Z,22.83
2023-12-09T08:53:05.797Z,16.60
2023-12-09T08:55:35.724Z,18.27
2023-12-09T08:58:04.404Z,18.00
2023-12-09T09:00:32.514Z,18.13
2023-12-09T09:03:00.670Z,18.13
2023-12-09T09:05:28.819Z,14.93
2023-12-09T09:07:57.145Z,15.47
2023-12-09T09:10:25.234Z,15.67
2023-12-09T09:12:54.769Z,15.97
2023-12-09T09:15:23.196Z,18.40
2023-12-09T09:17:52.485Z,18.93
2023-12-09T09:20:20.702Z,12.13
2023-12-09T09:22:49.087Z,12.07
2023-12-09T09:25:17.616Z,10.17
2023-12-09T09:27:45.865Z,13.83
2023-12-09T09:30:16.015Z,14.83
2023-12-09T09:32:44.192Z,8.47
2023-12-09T09:35:12.605Z,11.23
2023-12-09T09:37:40.767Z,9.00
2023-12-09T09:40:12.888Z,8.97
2023-12-09T09:42:45.861Z,10.73
2023-12-09T09:45:27.209Z,7.57
2023-12-09T09:47:58.741Z,7.83
2023-12-09T09:50:28.453Z,13.00
2023-12-09T09:52:56.842Z,9.83
2023-12-09T09:55:29.465Z,6.87
2023-12-09T09:57:57.954Z,7.23
2023-12-09T10:00:29.934Z,11.53
2023-12-09T10:03:00.232Z,11.57
2023-12-09T10:05:29.761Z,11.13
2023-12-09T10:07:58.368Z,7.33
2023-12-09T10:10:26.601Z,9.27
2023-12-09T10:12:55.091Z,6.97
2023-12-09T10:15:23.275Z,6.10
2023-12-09T10:17:53.278Z,10.33
2023-12-09T10:20:21.402Z,5.77
2023-12-09T10:22:49.822Z,6.07
2023-12-09T10:25:23.460Z,5.30
2023-12-09T10:27:51.668Z,5.97
2023-12-09T10:30:20.562Z,6.83
2023-12-09T10:32:49.558Z,5.23
2023-12-09T10:35:20.625Z,5.23
2023-12-09T10:37:50.908Z,5.73
2023-12-09T10:40:23.698Z,4.80
2023-12-09T10:42:53.528Z,5.40
2023-12-09T10:45:21.848Z,4.37
2023-12-09T10:47:50.009Z,5.57
2023-12-09T10:50:19.621Z,5.40
2023-12-09T10:52:47.716Z,5.60
2023-12-09T10:55:16.747Z,6.07
2023-12-09T10:57:45.878Z,5.50
2023-12-09T11:00:16.530Z,3.73
2023-12-09T11:02:47.711Z,7.17
2023-12-09T11:05:16.813Z,6.87
2023-12-09T11:07:48.273Z,5.97
2023-12-09T11:10:16.918Z,5.30
2023-12-09T11:12:46.222Z,6.27
2023-12-09T11:15:24.491Z,7.37
2023-12-09T11:17:55.147Z,5.30
2023-12-09T11:20:24.833Z,5.43
2023-12-09T11:22:55.076Z,5.73
2023-12-09T11:25:27.026Z,8.33
2023-12-09T11:27:56.160Z,9.07
2023-12-09T11:30:32.770Z,7.33
2023-12-09T11:33:01.376Z,6.07
2023-12-09T11:35:30.288Z,4.50
2023-12-09T11:38:01.448Z,9.60
2023-12-09T11:40:31.324Z,7.10
2023-12-09T11:42:59.801Z,7.13
2023-12-09T11:45:28.507Z,6.10
2023-12-09T11:47:58.561Z,5.67
2023-12-09T11:50:30.438Z,5.97
2023-12-09T11:53:01.105Z,7.30
2023-12-09T11:55:30.556Z,7.80
2023-12-09T11:57:58.928Z,6.47
2023-12-09T12:00:27.482Z,6.73
2023-12-09T12:02:57.643Z,6.60
2023-12-09T12:05:28.624Z,6.00
2023-12-09T12:07:57.211Z,6.67
2023-12-09T12:10:27.042Z,5.00
2023-12-09T12:12:55.769Z,5.53
2023-12-09T12:15:24.643Z,5.93
2023-12-09T12:17:53.324Z,5.43
2023-12-09T12:20:22.365Z,10.13
2023-12-09T12:22:50.790Z,7.70
2023-12-09T12:25:19.036Z,8.30
2023-12-09T12:27:48.579Z,5.80
2023-12-09T12:30:16.978Z,5.70
2023-12-09T12:32:45.336Z,10.50
2023-12-09T12:35:13.778Z,8.93
2023-12-09T12:37:42.855Z,4.93
2023-12-09T12:40:12.377Z,5.37
2023-12-09T12:42:40.781Z,6.63
2023-12-09T12:45:20.357Z,10.27
2023-12-09T12:47:49.594Z,5.90
2023-12-09T12:50:18.440Z,6.50
2023-12-09T12:52:46.975Z,5.57
2023-12-09T12:55:15.243Z,5.40
2023-12-09T12:57:44.970Z,5.77
2023-12-09T13:00:15.615Z,6.87
2023-12-09T13:02:45.388Z,5.60
2023-12-09T13:05:13.739Z,5.43
2023-12-09T13:07:41.836Z,7.30
2023-12-09T13:10:10.130Z,6.50
2023-12-09T13:12:38.394Z,5.77
2023-12-09T13:15:07.806Z,5.43
2023-12-09T13:17:36.316Z,7.23
2023-12-09T13:20:08.098Z,6.67
2023-12-09T13:22:36.967Z,5.70
2023-12-09T13:25:06.748Z,6.80
2023-12-09T13:27:35.403Z,7.07
2023-12-09T13:30:06.034Z,5.10
2023-12-09T13:32:34.222Z,5.43
2023-12-09T13:35:02.431Z,6.40
2023-12-09T13:37:32.178Z,5.67
2023-12-09T13:40:00.589Z,8.27
2023-12-09T13:42:29.469Z,3.90
2023-12-09T13:44:57.779Z,4.90
2023-12-09T13:47:26.269Z,5.87
2023-12-09T13:49:54.459Z,4.10
2023-12-09T13:52:23.915Z,6.53
2023-12-09T13:54:53.381Z,6.67
2023-12-09T13:57:21.480Z,5.73
2023-12-09T13:59:49.584Z,4.70
2023-12-09T14:02:17.687Z,8.97
2023-12-09T14:04:46.050Z,10.00
2023-12-09T14:07:15.041Z,8.10
2023-12-09T14:09:43.328Z,5.03
2023-12-09T14:12:13.149Z,5.57
2023-12-09T14:14:41.310Z,4.87
2023-12-09T14:17:11.234Z,7.27
2023-12-09T14:19:39.911Z,6.73
2023-12-09T14:22:11.134Z,8.73
2023-12-09T14:24:39.378Z,7.73
2023-12-09T14:27:07.679Z,6.87
2023-12-09T14:29:37.161Z,7.37
2023-12-09T14:32:05.753Z,7.83
2023-12-09T14:34:34.513Z,5.43
2023-12-09T14:37:04.427Z,6.63
2023-12-09T14:39:32.765Z,6.47
2023-12-09T14:42:01.078Z,4.70
2023-12-09T14:44:29.363Z,5.93
2023-12-09T14:46:58.818Z,6.83
2023-12-09T14:49:27.172Z,6.13
2023-12-09T14:51:55.561Z,6.17
2023-12-09T14:54:23.750Z,5.63
2023-12-09T14:56:53.072Z,9.57
2023-12-09T14:59:21.519Z,7.57
2023-12-09T15:01:49.771Z,5.43
2023-12-09T15:04:19.384Z,6.57
2023-12-09T15:06:49.941Z,9.93
2023-12-09T15:09:18.931Z,9.53
2023-12-09T15:11:48.658Z,6.77
2023-12-09T15:14:16.850Z,7.97
2023-12-09T15:16:45.054Z,5.77
2023-12-09T15:19:13.397Z,8.53
2023-12-09T15:21:43.314Z,9.33
2023-12-09T15:24:11.989Z,11.10
2023-12-09T15:26:40.656Z,8.60
2023-12-09T15:29:08.837Z,6.60
2023-12-09T15:31:36.960Z,6.57
2023-12-09T15:34:05.806Z,9.33
2023-12-09T15:36:34.494Z,7.77
2023-12-09T15:39:04.867Z,7.70
2023-12-09T15:41:34.356Z,6.73
2023-12-09T15:44:02.493Z,6.30
2023-12-09T15:46:31.047Z,8.63
2023-12-09T15:49:01.349Z,7.70
2023-12-09T15:51:29.648Z,7.40
2023-12-09T15:53:57.752Z,9.73
2023-12-09T15:56:27.257Z,9.63
2023-12-09T15:58:55.580Z,8.07
2023-12-09T16:01:23.917Z,11.60
2023-12-09T16:03:53.486Z,8.30
2023-12-09T16:06:21.851Z,9.30
2023-12-09T16:08:50.083Z,6.10
2023-12-09T16:11:18.166Z,7.60
2023-12-09T16:13:47.755Z,9.43
2023-12-09T16:16:16.239Z,8.63
2023-12-09T16:18:44.587Z,7.67
2023-12-09T16:21:12.804Z,10.57
2023-12-09T16:23:41.166Z,9.60
2023-12-09T16:26:12.147Z,8.90
2023-12-09T16:28:41.077Z,10.83
2023-12-09T16:31:15.747Z,7.70
2023-12-09T16:33:44.427Z,9.07
2023-12-09T16:36:13.669Z,9.07
2023-12-09T16:38:41.753Z,7.70
2023-12-09T16:41:09.818Z,8.53
2023-12-09T16:43:38.099Z,6.67
2023-12-09T16:46:06.709Z,8.93
2023-12-09T16:48:36.420Z,10.00
2023-12-09T16:51:04.822Z,8.47
2023-12-09T16:53:32.893Z,8.10
2023-12-09T16:56:01.655Z,10.03
2023-12-09T16:58:29.808Z,6.80
2023-12-09T17:00:58.075Z,6.47
2023-12-09T17:03:26.499Z,7.60
2023-12-09T17:05:56.020Z,8.77
2023-12-09T17:08:24.184Z,9.13
2023-12-09T17:10:52.338Z,8.53
2023-12-09T17:13:21.317Z,7.67
2023-12-09T17:15:49.808Z,7.03
2023-12-09T17:18:18.227Z,6.57
2023-12-09T17:20:47.599Z,6.50
2023-12-09T17:23:17.491Z,8.97
2023-12-09T17:25:45.712Z,9.10
2023-12-09T17:28:13.935Z,7.80
2023-12-09T17:30:42.044Z,5.83
2023-12-09T17:33:10.237Z,6.70
2023-12-09T17:35:38.449Z,7.77
2023-12-09T17:38:06.591Z,6.50
2023-12-09T17:40:36.322Z,7.57
2023-12-09T17:43:04.429Z,14.53
2023-12-09T17:45:32.519Z,7.60
2023-12-09T17:48:00.678Z,7.60
2023-12-09T17:50:28.791Z,9.67
2023-12-09T17:52:56.878Z,9.40
2023-12-09T17:55:27.771Z,8.33
2023-12-09T17:57:58.981Z,7.67
2023-12-09T18:00:27.233Z,8.30
2023-12-09T18:02:55.562Z,11.30
2023-12-09T18:05:23.880Z,12.53
2023-12-09T18:07:52.186Z,10.10
2023-12-09T18:10:20.361Z,12.30
2023-12-09T18:12:48.532Z,13.00
2023-12-09T18:15:18.100Z,9.10
2023-12-09T18:17:46.396Z,12.33
2023-12-09T18:20:14.632Z,11.83
2023-12-09T18:22:43.373Z,13.37
2023-12-09T18:25:13.475Z,13.03
2023-12-09T18:27:42.298Z,10.93
2023-12-09T18:30:11.458Z,10.90
2023-12-09T18:32:41.047Z,12.17
2023-12-09T18:35:12.360Z,10.80
2023-12-09T18:37:41.140Z,9.87
2023-12-09T18:40:11.072Z,9.37
2023-12-09T18:42:39.754Z,8.57
2023-12-09T18:45:12.264Z,8.67
2023-12-09T18:47:41.774Z,9.93
2023-12-09T18:50:10.602Z,9.97
2023-12-09T18:52:38.739Z,9.47
2023-12-09T18:55:07.936Z,14.70
2023-12-09T18:57:36.216Z,46.33
2023-12-09T19:00:05.689Z,27.73
2023-12-09T19:02:34.625Z,34.17
2023-12-09T19:05:04.432Z,15.20
2023-12-09T19:07:32.826Z,15.13
2023-12-09T19:10:04.881Z,19.63
2023-12-09T19:12:34.245Z,14.87
2023-12-09T19:15:03.696Z,13.67
2023-12-09T19:17:32.433Z,154.60
2023-12-09T19:20:00.722Z,93.50
2023-12-09T19:22:30.488Z,277.50
2023-12-09T19:24:58.698Z,475.07
2023-12-09T19:27:27.256Z,551.73
2023-12-09T19:29:55.747Z,65.67
2023-12-09T19:32:24.052Z,19.70
2023-12-09T19:34:52.843Z,9.40
2023-12-09T19:37:20.993Z,7.23
2023-12-09T19:39:50.546Z,7.57
2023-12-09T19:42:19.481Z,7.63
2023-12-09T19:44:47.654Z,7.33
2023-12-09T19:47:15.727Z,5.97
2023-12-09T19:49:43.943Z,6.23
2023-12-09T19:52:12.183Z,6.13
2023-12-09T19:54:40.279Z,5.97
2023-12-09T19:57:13.068Z,5.20
2023-12-09T19:59:42.319Z,5.93
2023-12-09T20:02:10.379Z,6.03
2023-12-09T20:04:38.586Z,5.40
2023-12-09T20:07:06.777Z,6.17
2023-12-09T20:09:34.936Z,7.33
2023-12-09T20:12:03.018Z,8.47
2023-12-09T20:14:33.430Z,7.83
2023-12-09T20:17:01.535Z,6.87
2023-12-09T20:19:29.712Z,8.23
2023-12-09T20:21:58.052Z,8.80
2023-12-09T20:24:26.173Z,10.20
2023-12-09T20:26:54.390Z,9.07
2023-12-09T20:29:23.092Z,10.23
2023-12-09T20:31:52.542Z,13.63
2023-12-09T20:34:20.799Z,11.57
2023-12-09T20:36:50.198Z,12.77
2023-12-09T20:39:18.322Z,11.60
2023-12-09T20:41:46.424Z,15.30
2023-12-09T20:44:14.504Z,12.80
2023-12-09T20:46:42.704Z,12.30
2023-12-09T20:49:13.689Z,14.00
2023-12-09T20:51:45.645Z,13.07
2023-12-09T20:54:14.171Z,11.83
2023-12-09T20:56:42.390Z,13.07
2023-12-09T20:59:10.613Z,13.73
2023-12-09T21:01:44.853Z,14.37
2023-12-09T21:04:14.553Z,13.83
2023-12-09T21:06:42.788Z,13.03
2023-12-09T21:09:11.152Z,12.47
2023-12-09T21:11:39.362Z,17.07
2023-12-09T21:14:08.816Z,12.47
2023-12-09T21:16:37.688Z,14.00
2023-12-09T21:19:05.983Z,9.87
2023-12-09T21:21:35.569Z,11.70
2023-12-09T21:24:03.706Z,11.47
2023-12-09T21:26:31.963Z,11.60
2023-12-09T21:29:00.051Z,14.07
2023-12-09T21:31:28.564Z,11.83
2023-12-09T21:33:56.689Z,15.77
2023-12-09T21:36:25.580Z,12.43
2023-12-09T21:38:55.130Z,10.00
2023-12-09T21:41:24.294Z,13.47
2023-12-09T21:43:52.797Z,12.87
2023-12-09T21:46:22.887Z,11.83
2023-12-09T21:48:52.578Z,11.47
2023-12-09T21:51:21.781Z,9.73
2023-12-09T21:53:50.327Z,12.13
2023-12-09T21:56:23.379Z,10.23
2023-12-09T21:58:52.181Z,12.30
2023-12-09T22:01:21.097Z,10.40
2023-12-09T22:03:49.727Z,10.03
2023-12-09T22:06:18.174Z,12.13
2023-12-09T22:08:46.726Z,12.43
2023-12-09T22:11:14.832Z,11.13
2023-12-09T22:13:44.678Z,12.23
2023-12-09T22:16:13.500Z,9.73
2023-12-09T22:18:41.707Z,11.47
2023-12-09T22:21:11.226Z,9.97
2023-12-09T22:23:39.458Z,12.37
2023-12-09T22:26:07.824Z,10.53
2023-12-09T22:28:39.978Z,11.80
2023-12-09T22:31:10.323Z,10.63
2023-12-09T22:33:41.122Z,12.03
2023-12-09T22:36:11.031Z,10.17
2023-12-09T22:38:39.115Z,14.30
2023-12-09T22:41:07.504Z,13.70
2023-12-09T22:43:35.859Z,13.47
2023-12-09T22:46:04.467Z,12.00
2023-12-09T22:48:34.072Z,10.97
2023-12-09T22:51:02.270Z,11.50
2023-12-09T22:53:30.390Z,13.30
2023-12-09T22:56:12.414Z,11.20
2023-12-09T22:58:42.531Z,11.23
2023-12-09T23:01:11.342Z,13.77
2023-12-09T23:03:40.980Z,11.83
2023-12-09T23:06:09.916Z,13.13
2023-12-09T23:08:40.484Z,11.13
2023-12-09T23:11:08.884Z,11.60
2023-12-09T23:13:37.011Z,11.93
2023-12-09T23:16:05.836Z,12.70
2023-12-09T23:18:34.369Z,12.37
2023-12-09T23:21:05.244Z,11.63
2023-12-09T23:23:33.437Z,10.87
2023-12-09T23:26:01.537Z,11.37
2023-12-09T23:28:29.790Z,12.87
2023-12-09T23:30:57.950Z,11.70
2023-12-09T23:33:26.404Z,12.07
2023-12-09T23:35:54.656Z,13.23
2023-12-09T23:38:24.124Z,11.20
2023-12-09T23:40:52.833Z,11.47
2023-12-09T23:43:20.960Z,14.53
2023-12-09T23:45:49.192Z,11.43
2023-12-09T23:48:18.990Z,10.10
2023-12-09T23:50:47.413Z,11.13
2023-12-09T23:53:15.897Z,11.97
2023-12-09T23:55:45.461Z,12.70
2023-12-09T23:58:15.730Z,10.17
